Flight Track Log - Related Links

Times and Time Zones

All times are in EDT time to prevent confusion due to time zone crossing. See the N304LG flight status page for this flight to view local times or setup timezone preferences in your user account.

Time Position Orientation Groundspeed Altitude Reporting Facility
EDT Latitude Longitude Course Direction KTS MPH feet Rate Location/Type
Fri 12:05:00 AM 35.5106 -108.6811 95° East 174 200 13,700  Level Albuquerque Center
Fri 12:06:01 AM 35.5061 -108.6194 95° East 171 197 14,500 689 Climbing Albuquerque Center
Fri 12:07:02 AM 35.4906 -108.5625 109° East 178 205 15,100 246 Climbing Albuquerque Center
Fri 12:08:03 AM 35.4761 -108.4978 105° East 190 219 15,000 -49 Descending Albuquerque Center
Fri 12:09:04 AM 35.4578 -108.4128 105° East 215 247 15,000  Level Albuquerque Center
Fri 12:10:05 AM 35.4419 -108.3392 105° East 226 260 15,000  Level Albuquerque Center
Fri 12:11:06 AM 35.4253 -108.2667 106° East 230 265 15,000  Level Albuquerque Center
Fri 12:12:06 AM 35.4069 -108.1831 105° East 229 264 15,000  Level Albuquerque Center
Fri 12:13:07 AM 35.3903 -108.1119 106° East 228 262 15,000  Level Albuquerque Center
Fri 12:14:08 AM 35.3744 -108.0422 106° East 224 258 15,000  Level Albuquerque Center
Fri 12:15:09 AM 35.3561 -107.9628 106° East 220 253 15,000  Level Albuquerque Center
Fri 12:16:10 AM 35.3414 -107.8956 105° East 217 250 15,000 -49 Level Albuquerque Center
Fri 12:17:11 AM 35.3261 -107.8300 106° East 212 244 14,900  Descending Albuquerque Center
Fri 12:18:12 AM 35.3081 -107.7533 106° East 208 239 15,000  Climbing Albuquerque Center
Fri 12:19:12 AM 35.2958 -107.6961 105° East 189 217 14,900 -50 Descending Albuquerque Center
Fri 12:20:13 AM 35.2814 -107.6392 107° East 185 213 14,900 49 Level Albuquerque Center
Fri 12:21:14 AM 35.2644 -107.5686 106° East 189 217 15,000 53 Climbing Albuquerque Center
Fri 12:22:06 AM 35.2517 -107.5100 105° East 197 227 15,000  Level Albuquerque Center
Fri 12:22:15 AM 35.2525 -107.5094 29° Northeast 195 224 15,000  Level Albuquerque Center
Fri 12:23:06 AM 35.2361 -107.4439 107° East 202 232 15,000  Level Albuquerque Center
Fri 12:23:16 AM 35.2361 -107.4417 90° East 206 237 15,000 -98 Level Albuquerque Center
Fri 12:24:07 AM 35.2208 -107.3775 106° East 206 237 14,900 -98 Descending Albuquerque Center
Fri 12:24:17 AM 35.2203 -107.3756 109° East 204 235 14,900 -1,000 Level Albuquerque Center
Fri 12:25:07 AM 35.2025 -107.3069 108° East 215 247 13,900 -1,000 Descending Albuquerque Center
Fri 12:25:17 AM 35.2033 -107.3056 54° Northeast 214 246 13,900 -787 Level Albuquerque Center
Fri 12:26:08 AM 35.1858 -107.2331 106° East 228 262 13,100 -885 Descending Albuquerque Center
Fri 12:26:18 AM 35.1853 -107.2317 116° Southeast 225 259 13,000 -885 Descending Albuquerque Center
Fri 12:27:09 AM 35.1692 -107.1594 105° East 226 260 12,200 -787 Descending Albuquerque Center
Fri 12:27:19 AM 35.1692 -107.1575 90° East 225 259 12,200 -800 Level Albuquerque Center
Fri 12:28:09 AM 35.1458 -107.0850 111° Southeast 224 258 11,400 -984 Descending Albuquerque Center
Fri 12:28:20 AM 35.1406 -107.0756 124° Southeast 223 257 11,200 -885 Descending Albuquerque Center
Fri 12:29:10 AM 35.1114 -107.0211 123° Southeast 225 259 10,500 -800 Descending Albuquerque Center
Fri 12:29:20 AM 35.1058 -107.0122 127° Southeast 224 258 10,400 -800 Descending Albuquerque Center
Fri 12:30:10 AM 35.0775 -106.9597 123° Southeast 222 255 9,700 -787 Descending Albuquerque Center
Fri 12:30:21 AM 35.0719 -106.9503 126° Southeast 221 254 9,600 -689 Descending Albuquerque Center
Fri 12:31:11 AM 35.0436 -106.8983 124° Southeast 220 253 9,000 -689 Descending Albuquerque Center
Fri 12:31:22 AM 35.0397 -106.8908 122° Southeast 219 252 8,900 -689 Descending Albuquerque Center
Fri 12:32:12 AM 35.0128 -106.8439 125° Southeast 184 212 8,300 -590 Descending Albuquerque Center
Fri 12:32:23 AM 35.0106 -106.8397 123° Southeast 193 222 8,300 -400 Level Albuquerque Center
Fri 12:33:12 AM 34.9875 -106.7958 123° Southeast 158 182 7,900 -400 Descending Albuquerque Center
Fri 12:33:23 AM 34.9858 -106.7925 121° Southeast 170 196 7,900 -492 Level Albuquerque Center
Fri 12:34:13 AM 34.9797 -106.7514 100° East 126 145 7,400 -590 Descending Albuquerque Center
Fri 12:34:24 AM 34.9800 -106.7481 84° East 137 158 7,300 -500 Descending Albuquerque Center
Fri 12:35:13 AM 34.9761 -106.7056 96° East 124 143 6,900 -393 Descending Albuquerque Center
Fri 12:35:25 AM 34.9753 -106.7056 180° South 128 147 6,900 -583 Level Albuquerque Center
Fri 12:36:25 AM 34.9911 -106.6675 63° Northeast 130 150 6,200 -709 Descending Albuquerque Center
Fri 12:37:15 AM 35.0156 -106.6383 44° Northeast 124 143 5,600 -689 Descending Albuquerque Center
Fri 12:37:26 AM 35.0200 -106.6328 46° Northeast 121 139 5,500 -545 Descending Albuquerque Center
Fri 12:39:00 AM 35.0333 -106.6000 59° Northeast  Level FlightAware Approximate
Fri 12:46:00 AM 35.1499 -107.1157 59° Northeast  Level Estimated
Fri 12:47:00 AM 35.1664 -107.1895 59° Northeast  Level Estimated
Fri 12:48:00 AM 35.1828 -107.2633 59° Northeast  Level Estimated
Fri 12:49:00 AM 35.1992 -107.3372 59° Northeast  Level Estimated
Fri 12:50:00 AM 35.2156 -107.4110 59° Northeast  Level Estimated
Fri 12:51:00 AM 35.2319 -107.4850 59° Northeast  Level Estimated
Fri 12:52:00 AM 35.2481 -107.5589 59° Northeast  Level Estimated
Fri 12:53:00 AM 35.2643 -107.6329 59° Northeast  Level Estimated
Fri 12:54:00 AM 35.2805 -107.7069 59° Northeast  Level Estimated
Fri 12:55:00 AM 35.2966 -107.7809 59° Northeast  Level Estimated
Fri 12:56:00 AM 35.3127 -107.8550 59° Northeast  Level Estimated
Fri 12:57:00 AM 35.3287 -107.9290 59° Northeast  Level Estimated
Fri 12:58:00 AM 35.3447 -108.0032 59° Northeast  Level Estimated
Fri 12:59:00 AM 35.3606 -108.0773 59° Northeast  Level Estimated
Fri 01:00:00 AM 35.3765 -108.1515 59° Northeast  Level Estimated
Fri 01:01:00 AM 35.3924 -108.2257 59° Northeast  Level Estimated
Fri 01:02:00 AM 35.4082 -108.2999 59° Northeast  Level Estimated
Fri 01:03:00 AM 35.4239 -108.3742 59° Northeast  Level Estimated
Fri 01:04:00 AM 35.4396 -108.4485 59° Northeast  Level Estimated

Login

Don't have an account? Register now (free) for customized features, flight alerts, and more!